New Castle, Virginia
Current Conditions -  °F | °C
As of 12:54 AM on Friday 19 Dec 2014 (Local Time) from KROA Reporting Station
Broken Clouds Broken Clouds  
Wind Chill: 30°   Ceiling: 10000
Heat Index: 38°   Visibility: 10mi
Dew Point: 18°   Wind: 12mph
Humidity: 44%   Direction: 300°WNW
Pressure: 30.12"   Gusts: NA
Location:  37.5°N, 80.11°W
Report Text: KROA 190554Z 30010KT 10SM BKN100 03/M08 A3012 RMK AO2 SLP204 T00331078 10061 20033 51007
Loading
Personal Weather Stations






























Interactive Weather Map New forecast layout! Learn more

10-Day Weather Forecast

Advertisements
Track Severe Weather on mobile